Time;durP1;ratioP1;P1;durP2;ratioP2;P2;SDS_P1;SDS_P2;PMS_P1;PMS_P2;Temp;Humidity;BMP_temperature;BMP_pressure;BME280_temperature;BME280_humidity;BME280_pressure;Samples;Min_cycle;Max_cycle;Signal;HPM_P1;HPM_P2
2021/06/26 00:00:36;;;;;;;8.20;7.50;;;24.10;56.30;;;;;;4983749;28;20688;-68
2021/06/26 00:03:03;;;;;;;8.53;7.83;;;24.10;55.80;;;;;;4992923;28;20264;-68
2021/06/26 00:05:35;;;;;;;8.10;7.30;;;24.10;55.70;;;;;;4983753;28;20242;-68
2021/06/26 00:08:03;;;;;;;8.80;8.07;;;24.10;55.80;;;;;;4989269;28;20208;-68
2021/06/26 00:10:30;;;;;;;8.77;7.10;;;24.00;55.70;;;;;;4983247;28;20207;-68
2021/06/26 00:13:02;;;;;;;8.67;7.77;;;24.10;55.80;;;;;;4985469;28;20220;-68
2021/06/26 00:15:30;;;;;;;8.83;7.97;;;24.00;55.70;;;;;;4988307;28;20802;-68
2021/06/26 00:18:05;;;;;;;8.30;7.50;;;24.00;55.70;;;;;;4986219;28;20243;-68
2021/06/26 00:20:33;;;;;;;8.67;7.87;;;24.00;55.70;;;;;;4986240;28;20204;-68
2021/06/26 00:23:04;;;;;;;8.90;8.10;;;24.10;55.80;;;;;;4980358;28;20556;-68
2021/06/26 00:25:32;;;;;;;8.83;8.13;;;24.00;55.70;;;;;;4988241;28;20193;-68
2021/06/26 00:28:09;;;;;;;8.53;7.83;;;24.00;55.70;;;;;;4981095;28;20265;-68
2021/06/26 00:30:40;;;;;;;8.50;7.80;;;24.00;55.70;;;;;;4983328;28;20199;-68
2021/06/26 00:33:09;;;;;;;9.37;8.57;;;24.00;55.70;;;;;;4991311;28;20635;-68
2021/06/26 00:35:39;;;;;;;9.10;8.37;;;24.00;55.80;;;;;;4987973;28;20201;-68
2021/06/26 00:38:20;;;;;;;8.27;7.57;;;24.00;55.80;;;;;;4991272;28;20216;-67
2021/06/26 00:40:52;;;;;;;8.73;7.93;;;24.00;55.80;;;;;;4993406;28;20196;-68
2021/06/26 00:43:24;;;;;;;8.47;7.77;;;24.00;55.80;;;;;;4989107;28;20227;-67
2021/06/26 00:45:57;;;;;;;9.10;8.30;;;24.00;55.80;;;;;;4988165;28;20192;-68
2021/06/26 00:48:27;;;;;;;9.07;8.27;;;24.00;55.80;;;;;;4987742;28;20255;-68
2021/06/26 00:50:56;;;;;;;8.77;7.97;;;24.00;55.90;;;;;;4967998;28;20213;-68
2021/06/26 00:53:29;;;;;;;8.47;7.67;;;24.00;55.80;;;;;;4990044;28;20200;-68
2021/06/26 00:55:57;;;;;;;8.20;7.50;;;24.00;55.80;;;;;;4982786;28;20274;-68
2021/06/26 00:58:27;;;;;;;8.40;7.60;;;24.00;55.80;;;;;;4989558;28;20196;-68
2021/06/26 01:00:55;;;;;;;8.87;8.07;;;24.00;55.80;;;;;;4985512;28;20213;-68
2021/06/26 01:03:28;;;;;;;8.33;7.63;;;24.00;55.80;;;;;;4986770;28;20339;-68
2021/06/26 01:05:56;;;;;;;8.63;7.70;;;24.00;55.80;;;;;;4983439;28;20205;-68
2021/06/26 01:08:26;;;;;;;8.23;7.53;;;23.90;55.80;;;;;;4985066;28;20251;-68
2021/06/26 01:10:55;;;;;;;8.97;8.00;;;23.90;55.80;;;;;;4983485;28;20206;-68
2021/06/26 01:13:25;;;;;;;9.10;8.30;;;23.90;55.70;;;;;;4990575;28;20251;-68
2021/06/26 01:15:56;;;;;;;9.00;8.10;;;23.90;55.70;;;;;;4983925;28;20231;-68
2021/06/26 01:18:25;;;;;;;8.60;7.80;;;23.90;55.80;;;;;;4988283;28;20205;-68
2021/06/26 01:20:56;;;;;;;8.53;7.83;;;23.90;55.70;;;;;;4980754;28;20272;-68
2021/06/26 01:23:29;;;;;;;8.93;8.13;;;23.90;55.70;;;;;;4982928;28;20234;-68
2021/06/26 01:25:57;;;;;;;8.53;7.83;;;23.90;55.70;;;;;;4985105;28;20201;-68
2021/06/26 01:28:26;;;;;;;8.23;7.47;;;23.90;55.70;;;;;;4985821;28;20488;-67
2021/06/26 01:30:56;;;;;;;8.50;7.73;;;23.90;55.70;;;;;;4988896;28;20204;-68
2021/06/26 01:33:25;;;;;;;9.03;8.13;;;23.90;55.80;;;;;;4983594;28;20205;-68
2021/06/26 01:35:55;;;;;;;8.63;7.83;;;23.90;55.70;;;;;;4982152;28;20208;-67
2021/06/26 01:38:25;;;;;;;8.43;7.63;;;23.90;55.80;;;;;;4984072;28;20278;-67
2021/06/26 01:40:58;;;;;;;9.10;8.30;;;23.90;55.80;;;;;;4976829;28;20197;-68
2021/06/26 01:43:31;;;;;;;8.47;7.77;;;23.90;55.70;;;;;;4982383;28;20671;-68
2021/06/26 01:46:01;;;;;;;8.20;7.50;;;23.90;55.70;;;;;;4987580;28;20246;-68
2021/06/26 01:48:30;;;;;;;8.17;7.37;;;23.90;55.70;;;;;;4984944;28;20255;-68
2021/06/26 01:50:57;;;;;;;10.33;8.30;;;23.90;55.70;;;;;;4989556;28;20236;-68
2021/06/26 01:53:29;;;;;;;8.80;8.10;;;23.90;55.70;;;;;;4986527;28;20233;-68
2021/06/26 01:56:01;;;;;;;9.80;8.17;;;23.90;55.70;;;;;;4986505;28;20830;-70
2021/06/26 01:58:34;;;;;;;8.73;8.00;;;23.90;55.80;;;;;;4983923;28;20202;-68
2021/06/26 02:01:05;;;;;;;9.27;8.37;;;23.90;55.70;;;;;;4985200;28;20215;-69
2021/06/26 02:03:33;;;;;;;9.87;8.87;;;23.90;55.80;;;;;;4986289;28;20868;-69
2021/06/26 02:06:01;;;;;;;9.23;8.40;;;23.90;55.70;;;;;;4986540;28;20258;-69
2021/06/26 02:08:40;;;;;;;9.20;8.30;;;23.90;55.70;;;;;;4987280;28;20219;-69
2021/06/26 02:11:10;;;;;;;9.07;8.20;;;23.80;55.60;;;;;;4980381;28;20211;-68
2021/06/26 02:13:41;;;;;;;9.20;8.40;;;23.90;55.70;;;;;;4970862;28;20207;-69
2021/06/26 02:16:10;;;;;;;10.27;9.00;;;23.80;55.60;;;;;;4982694;28;20212;-69
2021/06/26 02:18:40;;;;;;;9.10;8.23;;;23.80;55.60;;;;;;4988843;28;20211;-68
2021/06/26 02:21:09;;;;;;;9.60;8.67;;;23.90;55.70;;;;;;4978350;28;20665;-68
2021/06/26 02:23:41;;;;;;;9.67;8.67;;;23.80;55.60;;;;;;4984666;28;20236;-68
2021/06/26 02:26:23;;;;;;;9.80;9.00;;;23.80;55.60;;;;;;4982933;28;20212;-69
2021/06/26 02:28:53;;;;;;;9.93;9.03;;;23.80;55.60;;;;;;4987702;28;20203;-69
2021/06/26 02:31:23;;;;;;;9.63;8.67;;;23.90;55.70;;;;;;4982757;28;20286;-69
2021/06/26 02:33:55;;;;;;;11.50;8.87;;;23.90;55.60;;;;;;4984595;28;20200;-69
2021/06/26 02:36:25;;;;;;;9.40;8.60;;;23.80;55.60;;;;;;4974477;28;20271;-69
2021/06/26 02:38:58;;;;;;;9.63;8.63;;;23.80;55.70;;;;;;4979397;28;20212;-69
2021/06/26 02:41:26;;;;;;;9.37;8.57;;;23.80;55.60;;;;;;4982942;28;20279;-69
2021/06/26 02:43:55;;;;;;;9.97;9.07;;;23.80;55.60;;;;;;4981186;28;20220;-69
2021/06/26 02:46:23;;;;;;;9.30;8.43;;;23.80;55.60;;;;;;4984005;28;20207;-69
2021/06/26 02:48:54;;;;;;;9.33;8.53;;;23.80;55.50;;;;;;4984408;28;20204;-69
2021/06/26 02:51:24;;;;;;;10.20;9.30;;;23.80;55.50;;;;;;4988698;28;20188;-69
2021/06/26 02:53:58;;;;;;;10.50;9.50;;;23.80;55.60;;;;;;4978233;28;20212;-69
2021/06/26 02:56:29;;;;;;;9.87;8.87;;;23.80;55.60;;;;;;4982413;28;20243;-68
2021/06/26 02:58:57;;;;;;;9.87;8.97;;;23.80;55.60;;;;;;4985979;28;20195;-68
2021/06/26 03:01:24;;;;;;;10.60;9.60;;;23.80;55.50;;;;;;4989823;28;20216;-69
2021/06/26 03:03:55;;;;;;;10.57;9.63;;;23.80;55.50;;;;;;4982116;28;20669;-68
2021/06/26 03:06:26;;;;;;;10.97;9.30;;;23.80;55.50;;;;;;4985095;28;20193;-68
2021/06/26 03:08:56;;;;;;;9.23;8.43;;;23.80;55.50;;;;;;4979210;28;20259;-68
2021/06/26 03:11:27;;;;;;;10.20;9.30;;;23.80;55.50;;;;;;4986151;28;20706;-69
2021/06/26 03:13:57;;;;;;;10.13;9.20;;;23.80;55.50;;;;;;4982906;28;20204;-69
2021/06/26 03:16:28;;;;;;;9.80;8.93;;;23.80;55.50;;;;;;4985205;28;20204;-69
2021/06/26 03:18:59;;;;;;;9.47;8.67;;;23.80;55.50;;;;;;4990979;28;20207;-69
2021/06/26 03:21:28;;;;;;;10.33;9.40;;;23.80;55.50;;;;;;4987024;28;20237;-68
2021/06/26 03:24:00;;;;;;;9.83;8.97;;;23.80;55.50;;;;;;4991975;28;20212;-68
2021/06/26 03:26:28;;;;;;;10.77;9.77;;;23.80;55.60;;;;;;4987902;28;20193;-68
2021/06/26 03:28:56;;;;;;;10.53;9.53;;;23.80;55.60;;;;;;4986578;28;20203;-69
2021/06/26 03:31:25;;;;;;;10.50;9.40;;;23.70;55.50;;;;;;4982776;28;20356;-68
2021/06/26 03:33:56;;;;;;;12.67;9.50;;;23.70;55.60;;;;;;4985492;28;20200;-69
2021/06/26 03:36:30;;;;;;;9.67;8.70;;;23.70;55.60;;;;;;4983107;28;20300;-68
2021/06/26 03:39:00;;;;;;;10.40;9.27;;;23.70;55.50;;;;;;4984123;28;20208;-68
2021/06/26 03:41:31;;;;;;;10.33;9.33;;;23.70;55.50;;;;;;4982565;28;20600;-68
2021/06/26 03:44:02;;;;;;;10.53;9.43;;;23.70;55.50;;;;;;4978583;28;20228;-68
2021/06/26 03:46:30;;;;;;;10.00;9.10;;;23.80;55.60;;;;;;4984894;28;20188;-68
2021/06/26 03:49:00;;;;;;;10.23;9.13;;;23.70;55.60;;;;;;4984916;28;20825;-68
2021/06/26 03:51:30;;;;;;;10.47;9.50;;;23.70;55.50;;;;;;4985821;28;20208;-68
2021/06/26 03:54:00;;;;;;;10.93;9.93;;;23.70;55.50;;;;;;4989380;28;20208;-69
2021/06/26 03:56:31;;;;;;;9.73;8.83;;;23.70;55.60;;;;;;4988671;28;20196;-69
2021/06/26 03:59:00;;;;;;;10.43;9.20;;;23.80;55.60;;;;;;4985903;28;20228;-68
2021/06/26 04:01:30;;;;;;;10.17;9.27;;;23.70;55.60;;;;;;4985957;28;20208;-68
2021/06/26 04:03:58;;;;;;;9.80;8.90;;;23.70;55.60;;;;;;4980055;28;20298;-68
2021/06/26 04:06:29;;;;;;;11.03;9.93;;;23.70;55.50;;;;;;4989939;28;20201;-68
2021/06/26 04:09:06;;;;;;;10.33;9.43;;;23.70;55.50;;;;;;4986350;28;20193;-68
2021/06/26 04:11:37;;;;;;;10.27;9.37;;;23.70;55.40;;;;;;4986824;28;20199;-68
2021/06/26 04:14:04;;;;;;;10.67;9.57;;;23.70;55.40;;;;;;4985308;28;20196;-67
2021/06/26 04:16:32;;;;;;;10.97;9.97;;;23.70;55.40;;;;;;4972048;28;20209;-68
2021/06/26 04:19:03;;;;;;;11.23;9.87;;;23.70;55.40;;;;;;4981291;28;20213;-68
2021/06/26 04:21:30;;;;;;;11.23;10.10;;;23.70;55.40;;;;;;4980288;28;20244;-68
2021/06/26 04:24:00;;;;;;;10.43;9.53;;;23.70;55.30;;;;;;4984947;28;20217;-68
2021/06/26 04:26:31;;;;;;;11.10;10.00;;;23.70;55.30;;;;;;4988395;28;20200;-68
2021/06/26 04:29:02;;;;;;;10.47;9.47;;;23.70;55.40;;;;;;4985615;28;20219;-68
2021/06/26 04:31:35;;;;;;;11.37;9.97;;;23.80;55.40;;;;;;4984472;28;20212;-69
2021/06/26 04:34:03;;;;;;;10.70;9.80;;;23.70;55.40;;;;;;4989265;28;20231;-68
2021/06/26 04:36:32;;;;;;;11.60;9.40;;;23.70;55.40;;;;;;4985755;28;20612;-68
2021/06/26 04:39:01;;;;;;;10.43;9.50;;;23.70;55.40;;;;;;4978603;28;20206;-68
2021/06/26 04:41:31;;;;;;;12.00;10.67;;;23.70;55.40;;;;;;4980458;28;20212;-68
2021/06/26 04:44:04;;;;;;;11.13;10.03;;;23.70;55.40;;;;;;4991106;28;20224;-68
2021/06/26 04:46:39;;;;;;;10.73;9.73;;;23.70;55.40;;;;;;4973318;28;20196;-67
2021/06/26 04:49:09;;;;;;;10.43;9.50;;;23.70;55.40;;;;;;4981054;28;20702;-67
2021/06/26 04:51:38;;;;;;;11.00;10.00;;;23.70;55.40;;;;;;4980903;28;20223;-67
2021/06/26 04:54:15;;;;;;;10.93;9.97;;;23.70;55.50;;;;;;4988602;28;20184;-67
2021/06/26 04:56:46;;;;;;;10.53;9.53;;;23.70;55.40;;;;;;4984269;28;20200;-68
2021/06/26 04:59:16;;;;;;;10.70;9.70;;;23.70;55.50;;;;;;4990924;28;20213;-68
2021/06/26 05:01:45;;;;;;;11.60;10.43;;;23.70;55.50;;;;;;4983979;28;20207;-67
2021/06/26 05:04:14;;;;;;;10.43;9.33;;;23.70;55.50;;;;;;4987432;28;20232;-67
2021/06/26 05:06:42;;;;;;;10.80;9.77;;;23.70;55.50;;;;;;4979531;28;20535;-68
2021/06/26 05:09:10;;;;;;;11.07;10.00;;;23.70;55.50;;;;;;4988269;28;20204;-68
2021/06/26 05:11:46;;;;;;;11.00;9.70;;;23.70;56.10;;;;;;4974303;28;20623;-68
2021/06/26 05:14:19;;;;;;;10.87;9.87;;;23.70;55.50;;;;;;4980827;28;20274;-68
2021/06/26 05:16:52;;;;;;;12.10;10.90;;;23.70;55.50;;;;;;4986212;28;20204;-69
2021/06/26 05:19:25;;;;;;;11.07;10.07;;;23.70;55.50;;;;;;4987339;28;20584;-68
2021/06/26 05:21:53;;;;;;;12.03;9.83;;;23.70;55.50;;;;;;4975506;28;20278;-68
2021/06/26 05:24:22;;;;;;;11.20;10.00;;;23.70;55.50;;;;;;4980367;28;20222;-69
2021/06/26 05:26:51;;;;;;;10.90;9.80;;;23.70;55.60;;;;;;4973772;28;20206;-69
2021/06/26 05:29:19;;;;;;;11.73;10.53;;;23.70;55.80;;;;;;4984558;28;20235;-69
2021/06/26 05:31:52;;;;;;;13.53;10.53;;;23.70;55.70;;;;;;4989532;28;20271;-69
2021/06/26 05:34:22;;;;;;;13.43;10.97;;;23.70;55.50;;;;;;4984012;28;20204;-69
2021/06/26 05:36:57;;;;;;;11.53;10.37;;;23.70;55.50;;;;;;4981437;28;20215;-68
2021/06/26 05:39:27;;;;;;;11.33;10.23;;;23.70;55.40;;;;;;4986604;28;20207;-68
2021/06/26 05:41:58;;;;;;;11.43;10.40;;;23.70;55.50;;;;;;4987441;28;20662;-69
2021/06/26 05:44:26;;;;;;;13.37;10.90;;;23.70;55.40;;;;;;4984478;28;20228;-68
2021/06/26 05:46:54;;;;;;;12.97;11.03;;;23.70;55.40;;;;;;4988910;28;20545;-69
2021/06/26 05:49:27;;;;;;;12.47;10.93;;;23.70;55.40;;;;;;4987747;28;20216;-69
2021/06/26 05:51:56;;;;;;;12.60;11.40;;;23.70;55.40;;;;;;4991221;28;20228;-69
2021/06/26 05:54:32;;;;;;;11.73;10.63;;;23.70;55.40;;;;;;4979278;28;20192;-69
2021/06/26 05:57:04;;;;;;;12.63;11.40;;;23.70;55.50;;;;;;4985434;28;20280;-69
2021/06/26 05:59:33;;;;;;;11.60;10.47;;;23.70;55.50;;;;;;4987651;28;20217;-68
2021/06/26 06:02:03;;;;;;;11.03;10.03;;;23.70;55.40;;;;;;5001487;28;20203;-69
2021/06/26 06:04:32;;;;;;;12.03;10.40;;;23.70;55.50;;;;;;4996842;28;20244;-69
2021/06/26 06:07:02;;;;;;;11.77;10.33;;;23.70;55.50;;;;;;4993893;28;20208;-68
2021/06/26 06:09:33;;;;;;;10.53;9.43;;;23.70;55.50;;;;;;4996082;28;20188;-70
2021/06/26 06:12:04;;;;;;;12.30;9.23;;;23.70;55.40;;;;;;5002031;28;20248;-68
2021/06/26 06:14:36;;;;;;;10.40;9.30;;;23.70;55.30;;;;;;5003664;28;20233;-69
2021/06/26 06:17:06;;;;;;;11.00;9.03;;;23.70;55.30;;;;;;5006299;28;20858;-70
2021/06/26 06:19:37;;;;;;;9.43;8.47;;;23.70;55.30;;;;;;5003587;28;20192;-69
2021/06/26 06:22:09;;;;;;;10.90;9.07;;;23.70;55.30;;;;;;5000206;28;20228;-68
2021/06/26 06:24:39;;;;;;;10.00;8.60;;;23.70;55.30;;;;;;5001765;28;20232;-69
2021/06/26 06:27:06;;;;;;;9.43;8.60;;;23.70;55.40;;;;;;5001098;28;20200;-70
2021/06/26 06:29:33;;;;;;;9.90;9.00;;;23.70;55.50;;;;;;4989701;28;20271;-70
2021/06/26 06:32:07;;;;;;;9.17;8.33;;;23.70;55.70;;;;;;4987456;28;20192;-70
2021/06/26 06:34:39;;;;;;;10.00;9.00;;;23.70;55.70;;;;;;4982722;28;20286;-70
2021/06/26 06:37:13;;;;;;;11.20;9.63;;;23.70;55.70;;;;;;4989599;28;20203;-72
2021/06/26 06:39:44;;;;;;;10.33;9.43;;;23.70;55.70;;;;;;4983706;28;20197;-71
2021/06/26 06:42:12;;;;;;;10.90;9.80;;;23.80;55.80;;;;;;4990641;28;20201;-71
2021/06/26 06:44:44;;;;;;;10.67;9.77;;;23.80;55.70;;;;;;4983435;28;20222;-69
2021/06/26 06:47:14;;;;;;;10.80;9.73;;;23.70;55.70;;;;;;4992950;28;20223;-69
2021/06/26 06:49:44;;;;;;;10.07;9.17;;;23.80;55.60;;;;;;4983892;28;20196;-68
2021/06/26 06:52:11;;;;;;;9.33;8.33;;;23.80;55.40;;;;;;4991466;28;20524;-70
2021/06/26 06:54:40;;;;;;;9.13;8.23;;;23.80;55.30;;;;;;4983702;28;20222;-69
2021/06/26 06:57:12;;;;;;;10.30;9.30;;;23.80;55.20;;;;;;4989532;28;20232;-68
2021/06/26 06:59:44;;;;;;;10.63;9.53;;;23.80;55.20;;;;;;4991157;28;20636;-67
2021/06/26 07:02:14;;;;;;;12.67;10.53;;;23.80;55.30;;;;;;4985248;28;20215;-72
2021/06/26 07:04:43;;;;;;;10.90;9.80;;;23.80;55.30;;;;;;4980171;28;20556;-70
2021/06/26 07:07:10;;;;;;;13.60;12.20;;;23.80;55.30;;;;;;4981642;28;20228;-70
2021/06/26 07:09:43;;;;;;;13.90;12.60;;;23.80;55.40;;;;;;4964166;28;20213;-70
2021/06/26 07:12:11;;;;;;;14.63;12.27;;;23.80;55.40;;;;;;4983883;28;20231;-70
2021/06/26 07:14:42;;;;;;;14.23;12.73;;;23.80;55.30;;;;;;4989256;28;20551;-70
2021/06/26 07:17:15;;;;;;;14.53;11.63;;;23.90;55.40;;;;;;4986518;28;20217;-68
2021/06/26 07:19:44;;;;;;;19.50;13.50;;;23.90;55.40;;;;;;4991629;28;20802;-69
2021/06/26 07:22:15;;;;;;;19.17;13.77;;;23.80;55.90;;;;;;4984214;28;20318;-70
2021/06/26 07:24:45;;;;;;;14.33;11.63;;;23.80;55.80;;;;;;4987979;28;20213;-69
2021/06/26 07:27:18;;;;;;;12.40;11.10;;;23.80;55.70;;;;;;4988598;28;20193;-68
2021/06/26 07:29:53;;;;;;;13.93;10.33;;;23.80;55.60;;;;;;4990849;28;20213;-67
2021/06/26 07:32:40;;;;;;;33.33;17.33;;;23.80;55.30;;;;;;4990116;28;20734;-67
2021/06/26 07:35:09;;;;;;;32.17;19.17;;;23.90;56.50;;;;;;4988631;28;20196;-65
2021/06/26 07:37:40;;;;;;;26.03;18.43;;;23.90;57.00;;;;;;4987871;28;20211;-67
2021/06/26 07:40:16;;;;;;;27.10;17.97;;;23.80;56.50;;;;;;4985152;28;20529;-67
2021/06/26 07:42:49;;;;;;;20.73;17.03;;;23.90;56.10;;;;;;4986973;28;20290;-68
2021/06/26 07:45:20;;;;;;;21.97;16.63;;;23.90;56.20;;;;;;4981804;28;20278;-65
2021/06/26 07:48:04;;;;;;;24.77;17.70;;;23.90;56.10;;;;;;4985604;28;20195;-65
2021/06/26 07:50:35;;;;;;;21.47;16.53;;;23.80;56.80;;;;;;4983074;28;20197;-66
2021/06/26 07:53:08;;;;;;;21.53;16.87;;;23.80;56.30;;;;;;4987651;28;20217;-66
2021/06/26 07:55:39;;;;;;;19.20;16.00;;;23.90;56.10;;;;;;4980807;28;20677;-66
2021/06/26 07:58:10;;;;;;;19.53;16.63;;;23.80;56.00;;;;;;4984122;28;20737;-73
2021/06/26 08:00:40;;;;;;;18.00;14.50;;;23.90;55.90;;;;;;4984703;28;20220;-72
2021/06/26 08:03:10;;;;;;;15.23;13.70;;;23.90;55.80;;;;;;4988820;28;20560;-67
2021/06/26 08:05:42;;;;;;;16.83;15.13;;;23.90;55.70;;;;;;4984610;28;20238;-62
2021/06/26 08:08:13;;;;;;;14.33;12.80;;;23.90;56.60;;;;;;4984670;28;20229;-69
2021/06/26 08:10:46;;;;;;;16.13;12.53;;;23.90;55.90;;;;;;4983717;28;20905;-71
2021/06/26 08:13:16;;;;;;;13.33;11.60;;;24.00;56.30;;;;;;4985110;28;20247;-72
2021/06/26 08:15:47;;;;;;;16.13;11.80;;;24.00;56.10;;;;;;4986489;28;20196;-72
2021/06/26 08:18:15;;;;;;;13.80;10.47;;;24.00;56.50;;;;;;4986090;28;20208;-72
2021/06/26 08:20:49;;;;;;;18.43;12.70;;;24.00;56.10;;;;;;4989913;28;20556;-71
2021/06/26 08:23:19;;;;;;;14.53;11.27;;;24.10;56.90;;;;;;4987538;28;20239;-69
2021/06/26 08:25:48;;;;;;;24.13;17.47;;;24.10;55.90;;;;;;4991170;28;20244;-68
2021/06/26 08:28:15;;;;;;;21.60;18.33;;;24.10;56.80;;;;;;4989798;28;20694;-66
2021/06/26 08:30:49;;;;;;;19.57;17.47;;;24.10;56.90;;;;;;4992046;28;20537;-66
2021/06/26 08:33:18;;;;;;;23.17;18.07;;;24.10;57.00;;;;;;4987315;28;20551;-66
2021/06/26 08:35:56;;;;;;;20.70;17.90;;;24.20;57.00;;;;;;4988775;28;20389;-66
2021/06/26 08:38:26;;;;;;;19.23;17.20;;;24.20;56.90;;;;;;4968547;28;20887;-66
2021/06/26 08:40:55;;;;;;;18.90;16.03;;;24.20;56.80;;;;;;4982490;28;20197;-65
2021/06/26 08:43:27;;;;;;;17.97;16.03;;;24.20;56.60;;;;;;4983772;28;20705;-66
2021/06/26 08:46:01;;;;;;;19.57;16.27;;;24.20;56.50;;;;;;4964341;28;20253;-65
2021/06/26 08:48:33;;;;;;;17.47;14.97;;;24.20;56.60;;;;;;4975115;28;20208;-66
2021/06/26 08:51:01;;;;;;;16.70;14.80;;;24.20;56.00;;;;;;4981784;28;20220;-65
2021/06/26 08:53:34;;;;;;;17.33;15.53;;;24.20;56.00;;;;;;4982766;28;20206;-66
2021/06/26 08:56:02;;;;;;;17.03;15.30;;;24.20;56.40;;;;;;4980460;28;20239;-65
2021/06/26 08:58:30;;;;;;;17.77;15.87;;;24.20;55.80;;;;;;4982164;28;20188;-66
2021/06/26 09:00:59;;;;;;;16.83;15.13;;;24.30;55.80;;;;;;4983625;28;20220;-66
2021/06/26 09:03:30;;;;;;;22.00;17.27;;;24.30;55.90;;;;;;4992643;28;20287;-66
2021/06/26 09:06:04;;;;;;;22.93;17.67;;;24.30;55.80;;;;;;4980545;28;20550;-66
2021/06/26 09:08:49;;;;;;;21.37;17.23;;;24.30;56.00;;;;;;4990013;28;20204;-66
2021/06/26 09:11:19;;;;;;;26.10;17.77;;;24.40;56.90;;;;;;4981710;28;20198;-67
2021/06/26 09:14:00;;;;;;;20.63;17.27;;;24.30;56.40;;;;;;4990336;28;20663;-67
2021/06/26 09:16:27;;;;;;;20.33;17.87;;;24.30;56.10;;;;;;4983502;28;20204;-66
2021/06/26 09:18:56;;;;;;;22.70;20.40;;;24.30;55.90;;;;;;4981801;28;20668;-65
2021/06/26 09:24:20;;;;;;;23.47;19.90;;;24.40;54.90;;;;;;4984128;28;20223;-67
2021/06/26 09:26:58;;;;;;;20.20;18.17;;;24.40;54.80;;;;;;4982692;28;20223;-65
2021/06/26 09:29:28;;;;;;;21.73;17.53;;;24.40;54.80;;;;;;4986399;28;20199;-66
2021/06/26 09:32:05;;;;;;;18.60;16.63;;;24.40;55.40;;;;;;4978055;28;20189;-66
2021/06/26 09:34:43;;;;;;;18.27;16.37;;;24.40;56.50;;;;;;4979893;28;20205;-66
2021/06/26 09:37:18;;;;;;;17.33;15.47;;;24.40;55.70;;;;;;4981775;28;20215;-66
2021/06/26 09:39:50;;;;;;;15.93;14.33;;;24.40;55.30;;;;;;4979107;28;20558;-65
2021/06/26 09:42:39;;;;;;;16.13;13.83;;;24.40;55.10;;;;;;4978714;28;20205;-65
2021/06/26 09:45:11;;;;;;;14.80;13.20;;;24.40;55.30;;;;;;4981587;28;20609;-65
2021/06/26 09:47:41;;;;;;;15.43;12.50;;;24.50;55.40;;;;;;4978999;28;20227;-66
2021/06/26 09:50:26;;;;;;;14.27;12.53;;;24.50;54.40;;;;;;4978540;28;20211;-66
2021/06/26 09:53:04;;;;;;;15.33;12.17;;;24.50;55.70;;;;;;4980325;28;20217;-64
2021/06/26 09:55:46;;;;;;;19.93;12.67;;;24.60;54.10;;;;;;4980984;28;20234;-66
2021/06/26 09:58:20;;;;;;;15.30;12.60;;;24.60;55.10;;;;;;4984116;28;20604;-65
2021/06/26 10:00:52;;;;;;;15.97;12.43;;;24.60;54.20;;;;;;4984812;28;20208;-66
2021/06/26 10:03:33;;;;;;;13.38;10.80;;;24.70;54.70;;;;;;4983373;28;20452;-64
2021/06/26 10:06:04;;;;;;;12.83;11.50;;;24.70;54.70;;;;;;4981001;28;20221;-65
2021/06/26 10:08:36;;;;;;;13.03;11.00;;;24.70;55.20;;;;;;4982789;28;20217;-65
2021/06/26 10:11:05;;;;;;;13.20;11.90;;;24.80;53.00;;;;;;4967718;28;20197;-67
2021/06/26 10:13:42;;;;;;;12.90;11.50;;;24.70;52.70;;;;;;4980835;28;20677;-67
2021/06/26 10:16:12;;;;;;;11.53;10.43;;;24.70;52.70;;;;;;4987373;28;20269;-65
2021/06/26 10:18:42;;;;;;;11.63;10.43;;;24.80;53.50;;;;;;4978092;28;20205;-66
2021/06/26 10:21:13;;;;;;;19.00;11.73;;;24.80;54.90;;;;;;4986371;28;20413;-64
2021/06/26 10:23:43;;;;;;;20.63;13.30;;;24.90;54.80;;;;;;4979053;28;20913;-64
2021/06/26 10:26:19;;;;;;;22.70;13.00;;;24.90;55.30;;;;;;4988287;28;20204;-63
2021/06/26 10:28:59;;;;;;;16.53;12.23;;;25.00;55.10;;;;;;4979490;28;20205;-63
2021/06/26 10:31:33;;;;;;;21.97;12.33;;;25.00;54.90;;;;;;4978229;28;20535;-64
2021/06/26 10:34:22;;;;;;;12.57;10.33;;;25.10;54.50;;;;;;4980114;28;20523;-64
2021/06/26 10:36:57;;;;;;;14.87;10.30;;;25.10;54.50;;;;;;4980491;28;20296;-63
2021/06/26 10:39:29;;;;;;;12.90;11.10;;;25.10;53.90;;;;;;4983427;28;20188;-63
2021/06/26 10:42:08;;;;;;;14.27;10.93;;;25.10;52.50;;;;;;4983978;28;20204;-62
2021/06/26 10:44:52;;;;;;;14.37;10.40;;;25.10;52.70;;;;;;4989315;28;20242;-64
2021/06/26 10:47:44;;;;;;;14.27;11.40;;;25.20;55.40;;;;;;4981468;28;20211;-64
2021/06/26 10:50:22;;;;;;;11.57;10.37;;;25.20;54.60;;;;;;4985290;28;20208;-64
2021/06/26 10:52:57;;;;;;;12.20;11.03;;;25.20;54.30;;;;;;4979120;28;20200;-63
2021/06/26 10:55:40;;;;;;;11.93;10.73;;;25.30;54.50;;;;;;4978653;28;20271;-66
2021/06/26 10:58:07;;;;;;;22.07;12.17;;;25.30;53.90;;;;;;4985255;28;20808;-64
2021/06/26 11:00:40;;;;;;;32.10;15.97;;;25.30;54.00;;;;;;4981029;28;20216;-65
2021/06/26 11:03:23;;;;;;;20.27;12.37;;;25.30;52.70;;;;;;4983394;28;20251;-66
2021/06/26 11:05:52;;;;;;;17.03;12.37;;;25.40;53.10;;;;;;4978965;28;20232;-66
2021/06/26 11:08:24;;;;;;;17.20;11.87;;;25.40;52.80;;;;;;4975634;28;20821;-65
2021/06/26 11:11:03;;;;;;;16.88;11.45;;;25.30;54.00;;;;;;4972884;28;20883;-67
2021/06/26 11:13:35;;;;;;;15.07;11.13;;;25.50;53.60;;;;;;4985363;28;20193;-67
2021/06/26 11:16:08;;;;;;;17.23;10.57;;;25.50;53.90;;;;;;4982647;28;20216;-67
2021/06/26 11:18:37;;;;;;;12.80;9.63;;;25.60;54.20;;;;;;4984210;28;20200;-67
2021/06/26 11:21:08;;;;;;;11.87;9.60;;;25.70;54.40;;;;;;4979663;28;20231;-66
2021/06/26 11:23:37;;;;;;;11.77;9.40;;;25.80;54.80;;;;;;4980763;28;20243;-67
2021/06/26 11:26:05;;;;;;;10.53;8.40;;;25.90;54.80;;;;;;4958819;28;20239;-63
2021/06/26 11:28:42;;;;;;;10.10;8.40;;;25.90;54.80;;;;;;4991189;28;20204;-64
2021/06/26 11:31:12;;;;;;;12.30;8.47;;;26.00;54.90;;;;;;4985577;28;20231;-65
2021/06/26 11:33:41;;;;;;;11.23;8.73;;;26.00;54.90;;;;;;4988555;28;20296;-64
2021/06/26 11:36:12;;;;;;;12.23;8.13;;;26.10;55.10;;;;;;4981634;28;20223;-64
2021/06/26 11:38:42;;;;;;;8.80;7.83;;;26.20;55.00;;;;;;4989282;28;20211;-64
2021/06/26 11:41:13;;;;;;;9.60;7.13;;;26.20;55.00;;;;;;4979412;28;20247;-65
2021/06/26 11:43:50;;;;;;;11.20;7.73;;;26.30;55.00;;;;;;4978458;28;20577;-65
2021/06/26 11:46:18;;;;;;;8.77;7.87;;;26.40;55.00;;;;;;4983940;28;20307;-63
2021/06/26 11:48:52;;;;;;;9.40;8.33;;;26.50;54.60;;;;;;4983227;28;20266;-64
2021/06/26 11:51:24;;;;;;;9.97;7.60;;;26.50;54.30;;;;;;4987046;28;20200;-64
2021/06/26 11:53:55;;;;;;;8.33;7.53;;;26.50;54.50;;;;;;4986626;28;20258;-65
2021/06/26 11:56:22;;;;;;;9.10;7.60;;;26.50;55.20;;;;;;4982081;28;20203;-65
2021/06/26 11:58:53;;;;;;;11.57;8.03;;;26.60;55.80;;;;;;4980512;28;20208;-64
2021/06/26 12:01:29;;;;;;;10.93;8.37;;;26.60;56.10;;;;;;4986524;28;20208;-64
2021/06/26 12:04:02;;;;;;;7.97;7.23;;;26.70;56.30;;;;;;4987390;28;20207;-65
2021/06/26 12:06:48;;;;;;;9.40;7.33;;;26.70;56.40;;;;;;4987095;28;20696;-66
2021/06/26 12:09:22;;;;;;;8.50;7.80;;;26.80;56.70;;;;;;4981390;28;20649;-65
2021/06/26 12:11:57;;;;;;;8.53;7.73;;;26.90;56.80;;;;;;4981973;28;20197;-65
2021/06/26 12:14:49;;;;;;;8.13;7.37;;;26.90;56.90;;;;;;4982217;28;20597;-65
2021/06/26 12:17:21;;;;;;;7.63;6.93;;;27.00;57.00;;;;;;4987487;28;21625;-65
2021/06/26 12:20:19;;;;;;;8.27;7.47;;;27.00;57.30;;;;;;4983356;28;20500;-65
2021/06/26 12:22:50;;;;;;;8.10;7.30;;;27.10;57.40;;;;;;4978451;28;20232;-65
2021/06/26 12:25:21;;;;;;;7.60;6.43;;;27.10;57.40;;;;;;4978203;28;20232;-64
2021/06/26 12:28:00;;;;;;;7.03;6.53;;;27.20;57.80;;;;;;4980220;28;20205;-64
2021/06/26 12:30:29;;;;;;;7.17;6.47;;;27.20;57.90;;;;;;4988700;28;20216;-63
2021/06/26 12:33:14;;;;;;;7.30;6.70;;;27.30;58.20;;;;;;4980263;28;20193;-64
2021/06/26 12:35:42;;;;;;;7.57;6.93;;;27.30;58.20;;;;;;4989336;28;20244;-65
2021/06/26 12:38:16;;;;;;;6.70;6.20;;;27.40;58.40;;;;;;4982308;28;20291;-64
2021/06/26 12:40:45;;;;;;;7.20;6.53;;;27.40;58.50;;;;;;4987381;28;20219;-64
2021/06/26 12:43:14;;;;;;;7.30;6.60;;;27.40;58.50;;;;;;4981942;28;20713;-65
2021/06/26 12:45:53;;;;;;;7.10;6.50;;;27.40;58.60;;;;;;4978587;28;20263;-65
2021/06/26 12:48:30;;;;;;;7.23;6.60;;;27.50;58.50;;;;;;4979287;28;20960;-65
2021/06/26 12:53:38;;;;;;;6.90;6.27;;;27.50;58.50;;;;;;4978826;28;20920;-64
2021/06/26 12:56:14;;;;;;;6.50;6.00;;;27.50;58.50;;;;;;4982750;28;20612;-64
2021/06/26 12:58:57;;;;;;;6.90;6.30;;;27.50;58.50;;;;;;4985267;28;20227;-64
2021/06/26 13:01:50;;;;;;;6.10;5.60;;;27.50;58.40;;;;;;4982179;28;20408;-65
2021/06/26 13:04:47;;;;;;;6.93;6.33;;;27.50;58.60;;;;;;4981977;28;20235;-65